Time;durP1;ratioP1;P1;durP2;ratioP2;P2;SDS_P1;SDS_P2;PMS_P1;PMS_P2;Temp;Humidity;BMP_temperature;BMP_pressure;BME280_temperature;BME280_humidity;BME280_pressure;Samples;Min_cycle;Max_cycle;Signal;HPM_P1;HPM_P2
2023/04/29 00:00:15;;;;;;;25.45;18.90;;;15.30;67.30;;;;;;5018117;28;20110;-45
2023/04/29 00:02:49;;;;;;;27.55;18.80;;;15.30;67.40;;;;;;5009498;28;20512;-45
2023/04/29 00:05:16;;;;;;;28.15;21.60;;;15.20;67.20;;;;;;5018259;28;20041;-46
2023/04/29 00:07:46;;;;;;;26.90;20.92;;;15.20;67.20;;;;;;5014584;28;20072;-49
2023/04/29 00:10:16;;;;;;;33.15;21.23;;;15.20;67.10;;;;;;4997049;28;20053;-47
2023/04/29 00:12:45;;;;;;;30.20;21.25;;;15.10;67.10;;;;;;5009759;28;20463;-45
2023/04/29 00:15:12;;;;;;;30.63;22.23;;;15.10;67.10;;;;;;5012194;28;20041;-47
2023/04/29 00:17:41;;;;;;;30.17;21.90;;;15.00;67.00;;;;;;5014848;28;20044;-45
2023/04/29 00:20:09;;;;;;;31.35;22.40;;;15.00;67.10;;;;;;5008354;28;20050;-45
2023/04/29 00:22:38;;;;;;;34.97;23.45;;;15.10;67.80;;;;;;5009954;28;20069;-46
2023/04/29 00:25:10;;;;;;;34.08;23.58;;;15.00;67.30;;;;;;5019921;28;20068;-46
2023/04/29 00:27:39;;;;;;;35.25;23.35;;;14.90;67.20;;;;;;5011858;28;20038;-48
2023/04/29 00:30:07;;;;;;;36.33;24.75;;;14.90;67.20;;;;;;5017929;28;20045;-46
2023/04/29 00:32:36;;;;;;;41.85;27.05;;;14.90;67.30;;;;;;4998378;28;20045;-48
2023/04/29 00:35:03;;;;;;;35.88;23.88;;;14.80;67.50;;;;;;5010296;28;20045;-46
2023/04/29 00:37:30;;;;;;;45.08;26.55;;;14.80;67.50;;;;;;5015650;28;20483;-47
2023/04/29 00:40:01;;;;;;;40.63;26.73;;;14.80;67.60;;;;;;5001386;28;20046;-45
2023/04/29 00:42:29;;;;;;;44.67;27.83;;;14.80;67.80;;;;;;4991919;28;20088;-49
2023/04/29 00:44:57;;;;;;;46.67;29.45;;;14.80;67.90;;;;;;5006096;28;20283;-48
2023/04/29 00:47:28;;;;;;;43.55;28.55;;;14.70;67.90;;;;;;5016169;28;20038;-46
2023/04/29 00:49:54;;;;;;;41.65;27.83;;;14.70;68.00;;;;;;5008350;28;20053;-47
2023/04/29 00:52:22;;;;;;;47.38;30.35;;;14.70;68.10;;;;;;5010485;28;20061;-46
2023/04/29 00:54:51;;;;;;;44.78;28.98;;;14.70;68.20;;;;;;5011204;28;20038;-49
2023/04/29 00:57:21;;;;;;;45.45;28.85;;;14.70;68.50;;;;;;4991394;28;20919;-45
2023/04/29 00:59:49;;;;;;;45.08;28.77;;;14.70;68.30;;;;;;5019692;28;20120;-49
2023/04/29 01:02:18;;;;;;;46.15;30.08;;;14.70;68.40;;;;;;4992116;28;20050;-46
2023/04/29 01:04:45;;;;;;;50.75;29.15;;;14.60;68.40;;;;;;4991589;28;20045;-49
2023/04/29 01:07:22;;;;;;;46.28;30.92;;;14.60;68.30;;;;;;5015867;28;20478;-47
2023/04/29 01:10:03;;;;;;;52.70;34.33;;;14.60;68.60;;;;;;5021550;28;20050;-48
2023/04/29 01:12:37;;;;;;;;;;;14.60;68.70;;;;;;5001762;28;20050;-44
2023/04/29 01:15:22;;;;;;;52.33;31.25;;;14.70;68.30;;;;;;4991861;28;19921;-45
2023/04/29 01:17:57;;;;;;;52.38;33.67;;;14.70;68.30;;;;;;5020476;28;20042;-48
2023/04/29 01:20:25;;;;;;;55.83;33.63;;;14.60;68.50;;;;;;4991442;28;20046;-45
2023/04/29 01:22:54;;;;;;;56.10;34.13;;;14.60;68.40;;;;;;5006486;28;20068;-46
2023/04/29 01:25:21;;;;;;;52.00;34.65;;;14.60;68.50;;;;;;5004232;28;20057;-46
2023/04/29 01:28:55;;;;;;;49.25;31.45;;;14.60;68.60;;;;;;4975234;28;20141;-45
2023/04/29 01:31:57;;;;;;;58.50;33.63;;;14.60;68.80;;;;;;5016549;28;20043;-47
2023/04/29 01:35:03;;;;;;;56.00;34.45;;;14.60;68.90;;;;;;4996180;28;20165;-48
2023/04/29 01:37:44;;;;;;;44.85;31.60;;;14.60;68.70;;;;;;4997777;28;20045;-50
2023/04/29 01:40:27;;;;;;;49.47;32.60;;;14.60;68.50;;;;;;5003171;28;20564;-49
2023/04/29 01:43:04;;;;;;;48.25;31.50;;;14.50;68.30;;;;;;4995580;28;20073;-50
2023/04/29 01:45:34;;;;;;;51.72;33.40;;;14.50;68.30;;;;;;4995124;28;20042;-49
2023/04/29 01:48:03;;;;;;;49.40;31.83;;;14.50;68.40;;;;;;5000384;28;20045;-49
2023/04/29 01:50:31;;;;;;;52.67;34.13;;;14.50;68.30;;;;;;5000312;28;20049;-47
2023/04/29 01:53:06;;;;;;;57.08;33.88;;;14.40;68.40;;;;;;4994770;28;20045;-50
2023/04/29 01:55:36;;;;;;;53.38;32.80;;;14.40;68.40;;;;;;4999822;28;20061;-48
2023/04/29 01:58:15;;;;;;;55.95;31.15;;;14.40;68.40;;;;;;5003295;28;20275;-50
2023/04/29 02:01:14;;;;;;;53.72;31.85;;;14.40;68.50;;;;;;4938809;28;20063;-49
2023/04/29 02:03:45;;;;;;;58.13;31.45;;;14.30;68.50;;;;;;4999244;28;20442;-48
2023/04/29 02:06:14;;;;;;;53.08;29.52;;;14.30;68.60;;;;;;4996649;28;20048;-48
2023/04/29 02:08:41;;;;;;;50.35;28.95;;;14.20;68.60;;;;;;5001760;28;20037;-49
2023/04/29 02:11:17;;;;;;;55.65;31.00;;;14.20;68.80;;;;;;4993348;28;20041;-46
2023/04/29 02:13:46;;;;;;;51.90;29.27;;;14.10;68.90;;;;;;4994455;28;20041;-46
2023/04/29 02:16:17;;;;;;;50.45;29.05;;;14.10;68.90;;;;;;4998239;28;20406;-46
2023/04/29 02:18:57;;;;;;;50.25;29.27;;;14.10;69.10;;;;;;4992468;28;20038;-45
2023/04/29 02:21:34;;;;;;;51.80;28.05;;;14.00;69.10;;;;;;4992552;28;20037;-47
2023/04/29 02:24:01;;;;;;;47.05;28.08;;;14.00;69.60;;;;;;5008910;28;20056;-47
2023/04/29 02:26:33;;;;;;;48.38;27.17;;;13.90;69.10;;;;;;5018374;28;20041;-45
2023/04/29 02:29:02;;;;;;;45.78;28.33;;;13.90;69.30;;;;;;5021198;28;20120;-46
2023/04/29 02:31:32;;;;;;;46.40;27.52;;;13.90;69.40;;;;;;5013659;28;20513;-46
2023/04/29 02:33:59;;;;;;;44.17;25.70;;;13.80;69.40;;;;;;5001813;28;20045;-45
2023/04/29 02:36:28;;;;;;;44.13;24.35;;;13.80;69.40;;;;;;4995148;28;20048;-47
2023/04/29 02:39:01;;;;;;;40.95;25.80;;;13.80;69.50;;;;;;5014614;28;20579;-46
2023/04/29 02:41:30;;;;;;;43.03;25.85;;;13.80;69.50;;;;;;5005192;28;20528;-47
2023/04/29 02:44:04;;;;;;;42.70;27.08;;;13.80;69.50;;;;;;4998215;28;20411;-45
2023/04/29 02:46:34;;;;;;;49.60;26.75;;;13.80;69.60;;;;;;5005318;28;20038;-46
2023/04/29 02:49:04;;;;;;;40.33;25.00;;;13.80;69.50;;;;;;5021497;28;20061;-49
2023/04/29 02:51:31;;;;;;;35.88;23.50;;;13.80;69.40;;;;;;4993268;28;20494;-48
2023/04/29 02:53:58;;;;;;;29.58;21.95;;;13.80;69.40;;;;;;4994590;28;20048;-46
2023/04/29 02:56:29;;;;;;;31.30;20.45;;;13.80;69.20;;;;;;5017163;28;20036;-47
2023/04/29 02:59:02;;;;;;;28.75;19.65;;;13.80;69.00;;;;;;5005482;28;20099;-45
2023/04/29 03:01:32;;;;;;;29.25;20.15;;;13.80;68.80;;;;;;4996940;28;20129;-47
2023/04/29 03:03:59;;;;;;;26.05;18.50;;;13.80;68.90;;;;;;4994728;28;20100;-45
2023/04/29 03:06:26;;;;;;;30.65;19.35;;;13.80;69.00;;;;;;4992790;28;20048;-45
2023/04/29 03:08:58;;;;;;;31.10;20.52;;;13.70;69.00;;;;;;5017931;28;20041;-45
2023/04/29 03:11:27;;;;;;;30.23;19.17;;;13.80;69.00;;;;;;4999637;28;20457;-46
2023/04/29 03:13:56;;;;;;;31.20;20.13;;;13.80;68.90;;;;;;5009633;28;20037;-50
2023/04/29 03:16:24;;;;;;;29.88;18.92;;;13.80;68.80;;;;;;4993233;28;20068;-49
2023/04/29 03:18:53;;;;;;;28.80;20.48;;;13.80;68.70;;;;;;5004065;28;20108;-48
2023/04/29 03:21:19;;;;;;;28.17;18.65;;;13.70;68.60;;;;;;4992763;28;20053;-47
2023/04/29 03:23:48;;;;;;;32.22;20.20;;;13.70;68.70;;;;;;5011013;28;20045;-45
2023/04/29 03:26:26;;;;;;;30.50;19.38;;;13.70;68.90;;;;;;4995583;28;20552;-45
2023/04/29 03:28:55;;;;;;;29.55;19.00;;;13.70;68.90;;;;;;5010646;28;20033;-45
2023/04/29 03:31:26;;;;;;;30.13;19.58;;;13.70;68.90;;;;;;4996568;28;20041;-44
2023/04/29 03:33:54;;;;;;;31.25;21.05;;;13.70;68.90;;;;;;5011955;28;20132;-45
2023/04/29 03:36:23;;;;;;;31.65;20.60;;;13.70;68.90;;;;;;4995301;28;20085;-47
2023/04/29 03:39:08;;;;;;;26.83;19.27;;;13.60;69.00;;;;;;4998493;28;20092;-44
2023/04/29 03:41:35;;;;;;;31.27;20.60;;;13.60;68.90;;;;;;4992270;28;20041;-45
2023/04/29 03:44:02;;;;;;;32.97;21.70;;;13.60;69.00;;;;;;5011127;28;20038;-47
2023/04/29 03:46:29;;;;;;;31.88;20.08;;;13.60;69.00;;;;;;4998120;28;20049;-48
2023/04/29 03:49:03;;;;;;;33.17;20.75;;;13.60;69.10;;;;;;5000786;28;20038;-46
2023/04/29 03:51:32;;;;;;;33.58;21.38;;;13.40;69.10;;;;;;5009877;28;20045;-46
2023/04/29 03:54:12;;;;;;;35.78;21.75;;;13.50;69.40;;;;;;5001506;28;20128;-45
2023/04/29 03:56:44;;;;;;;33.42;21.63;;;13.50;69.30;;;;;;5005872;28;20041;-46
2023/04/29 03:59:15;;;;;;;29.95;19.80;;;13.50;69.30;;;;;;5002001;28;20109;-47
2023/04/29 04:01:41;;;;;;;31.30;20.80;;;13.50;69.40;;;;;;4996219;28;20037;-50
2023/04/29 04:04:10;;;;;;;33.97;22.35;;;13.50;69.70;;;;;;5004822;28;20053;-45
2023/04/29 04:06:43;;;;;;;31.02;21.38;;;13.40;69.80;;;;;;5000028;28;20037;-46
2023/04/29 04:09:12;;;;;;;32.78;21.13;;;13.40;69.90;;;;;;5002441;28;20103;-45
2023/04/29 04:11:41;;;;;;;37.65;23.80;;;13.40;70.10;;;;;;4992349;28;20030;-45
2023/04/29 04:14:11;;;;;;;;;;;13.40;70.20;;;;;;4993937;28;20053;-44
2023/04/29 04:16:38;;;;;;;30.27;18.75;;;13.50;70.40;;;;;;5023040;28;19925;-44
2023/04/29 04:19:05;;;;;;;34.50;22.15;;;13.40;69.80;;;;;;5014125;28;20065;-44
2023/04/29 04:21:35;;;;;;;33.25;21.67;;;13.40;70.00;;;;;;4999274;28;20041;-46
2023/04/29 04:24:06;;;;;;;32.13;21.48;;;13.40;70.20;;;;;;5009833;28;20053;-45
2023/04/29 04:26:35;;;;;;;29.45;20.15;;;13.40;70.40;;;;;;4992305;28;20049;-45
2023/04/29 04:29:07;;;;;;;31.27;20.70;;;13.30;70.40;;;;;;5021243;28;20069;-45
2023/04/29 04:31:48;;;;;;;31.77;21.75;;;13.30;70.70;;;;;;5011170;28;20037;-47
2023/04/29 04:34:19;;;;;;;27.60;20.38;;;13.30;71.20;;;;;;5011471;28;20080;-46
2023/04/29 04:36:51;;;;;;;27.73;18.80;;;13.30;70.90;;;;;;5011812;28;20098;-47
2023/04/29 04:39:21;;;;;;;28.15;18.88;;;13.30;70.90;;;;;;5006869;28;20034;-46
2023/04/29 04:41:50;;;;;;;27.35;18.80;;;13.30;71.20;;;;;;5011103;28;20115;-45
2023/04/29 04:44:23;;;;;;;33.22;19.92;;;13.30;71.20;;;;;;5011329;28;20045;-44
2023/04/29 04:46:57;;;;;;;24.63;17.15;;;13.30;71.20;;;;;;5005250;28;20041;-48
2023/04/29 04:49:48;;;;;;;26.02;18.88;;;13.30;71.10;;;;;;5001136;28;20529;-46
2023/04/29 04:52:15;;;;;;;28.45;17.92;;;13.30;71.10;;;;;;5011403;28;20071;-46
2023/04/29 04:54:49;;;;;;;25.20;18.38;;;13.30;71.20;;;;;;5011711;28;20521;-44
2023/04/29 04:57:28;;;;;;;26.42;17.88;;;13.30;71.20;;;;;;5009480;28;20049;-46
2023/04/29 05:00:04;;;;;;;25.20;17.10;;;13.30;71.30;;;;;;5027108;28;20164;-45
2023/04/29 05:02:33;;;;;;;27.60;18.13;;;13.40;71.40;;;;;;5004997;28;20456;-48
2023/04/29 05:05:00;;;;;;;24.48;16.60;;;13.40;71.30;;;;;;5012266;28;20057;-46
2023/04/29 05:07:36;;;;;;;24.75;17.30;;;13.40;71.40;;;;;;5009552;28;20068;-46
2023/04/29 05:10:05;;;;;;;25.60;16.77;;;13.40;71.40;;;;;;5007175;28;20053;-46
2023/04/29 05:12:35;;;;;;;22.50;16.20;;;13.40;71.40;;;;;;5011867;28;20041;-47
2023/04/29 05:15:03;;;;;;;26.83;16.50;;;13.40;71.30;;;;;;4989488;28;20164;-45
2023/04/29 05:17:31;;;;;;;24.10;17.17;;;13.50;71.30;;;;;;5005897;28;20132;-45
2023/04/29 05:19:58;;;;;;;21.67;16.58;;;13.50;71.20;;;;;;5010596;28;20093;-46
2023/04/29 05:22:25;;;;;;;23.42;17.33;;;13.50;71.20;;;;;;5011844;28;20497;-45
2023/04/29 05:24:53;;;;;;;20.48;15.57;;;13.40;71.20;;;;;;5006626;28;20506;-45
2023/04/29 05:27:20;;;;;;;24.10;17.35;;;13.50;71.00;;;;;;5007452;28;20050;-44
2023/04/29 05:29:47;;;;;;;23.83;16.88;;;13.50;71.00;;;;;;5010947;28;20103;-44
2023/04/29 05:32:14;;;;;;;23.63;16.10;;;13.50;71.10;;;;;;5010910;28;20049;-44
2023/04/29 05:34:44;;;;;;;25.02;17.48;;;13.50;71.30;;;;;;5021313;28;20549;-45
2023/04/29 05:37:11;;;;;;;22.25;15.48;;;13.50;71.30;;;;;;5014064;28;20050;-47
2023/04/29 05:39:55;;;;;;;21.45;14.20;;;13.50;71.30;;;;;;5009686;28;20505;-44
2023/04/29 05:42:22;;;;;;;21.80;15.00;;;13.50;71.00;;;;;;5026473;28;20092;-45
2023/04/29 05:44:50;;;;;;;20.92;15.43;;;13.50;71.20;;;;;;5008490;28;20061;-45
2023/04/29 05:47:19;;;;;;;20.05;14.35;;;13.50;71.20;;;;;;5002411;28;20578;-44
2023/04/29 05:49:47;;;;;;;20.55;13.93;;;13.50;71.20;;;;;;5009097;28;20088;-47
2023/04/29 05:52:13;;;;;;;21.13;14.68;;;13.50;72.00;;;;;;5010004;28;20128;-44
2023/04/29 05:54:46;;;;;;;22.98;15.80;;;13.50;71.30;;;;;;5010029;28;20052;-44
2023/04/29 05:57:16;;;;;;;20.98;14.38;;;13.50;71.20;;;;;;5010435;28;20049;-44
2023/04/29 05:59:43;;;;;;;17.88;12.93;;;13.50;71.30;;;;;;5006919;28;20476;-47
2023/04/29 06:02:11;;;;;;;19.30;14.52;;;13.50;71.30;;;;;;5024017;28;20724;-45
2023/04/29 06:04:42;;;;;;;18.70;14.60;;;13.50;71.40;;;;;;4976143;28;20049;-44
2023/04/29 06:07:20;;;;;;;18.65;14.52;;;13.50;71.50;;;;;;4997644;28;20540;-45
2023/04/29 06:09:50;;;;;;;16.88;12.20;;;13.50;71.50;;;;;;5025493;28;20065;-44
2023/04/29 06:12:16;;;;;;;18.60;13.32;;;13.50;71.60;;;;;;5015414;28;20042;-44
2023/04/29 06:14:45;;;;;;;17.00;12.02;;;13.60;71.60;;;;;;5004114;28;20092;-47
2023/04/29 06:17:12;;;;;;;16.20;13.05;;;13.60;71.30;;;;;;5000483;28;20041;-45
2023/04/29 06:19:39;;;;;;;17.67;11.95;;;13.60;71.20;;;;;;5002748;28;20041;-45
2023/04/29 06:22:08;;;;;;;17.77;11.88;;;13.60;71.20;;;;;;5004115;28;20469;-45
2023/04/29 06:24:37;;;;;;;18.10;12.18;;;13.60;71.10;;;;;;5005030;28;20093;-45
2023/04/29 06:27:05;;;;;;;16.17;12.10;;;13.60;71.00;;;;;;5017620;28;20038;-45
2023/04/29 06:29:32;;;;;;;19.27;12.20;;;13.60;71.10;;;;;;5008767;28;20052;-45
2023/04/29 06:31:58;;;;;;;17.42;12.82;;;13.70;71.10;;;;;;5012872;28;20046;-43
2023/04/29 06:34:25;;;;;;;16.88;12.55;;;13.60;70.90;;;;;;5007953;28;20049;-45
2023/04/29 06:37:20;;;;;;;18.88;12.75;;;13.60;70.90;;;;;;5016269;28;20050;-47
2023/04/29 06:40:06;;;;;;;17.50;13.02;;;13.70;71.00;;;;;;5031539;28;20516;-46
2023/04/29 06:42:43;;;;;;;21.58;14.27;;;13.70;70.90;;;;;;5011053;28;20112;-45
2023/04/29 06:45:32;;;;;;;17.55;13.50;;;13.70;70.90;;;;;;4999698;28;20136;-46
2023/04/29 06:48:07;;;;;;;21.33;14.50;;;13.70;70.80;;;;;;5012924;28;20048;-45
2023/04/29 06:50:57;;;;;;;22.42;14.18;;;13.70;70.80;;;;;;5008324;28;20045;-44
2023/04/29 06:53:23;;;;;;;20.23;13.57;;;13.80;71.20;;;;;;5010085;28;20053;-45
2023/04/29 06:55:50;;;;;;;19.15;13.73;;;13.80;70.90;;;;;;5029420;28;20406;-45
2023/04/29 06:58:19;;;;;;;19.05;13.38;;;13.80;70.60;;;;;;5013257;28;20041;-46
2023/04/29 07:00:47;;;;;;;16.38;12.70;;;13.80;70.50;;;;;;5013686;28;20042;-45
2023/04/29 07:03:15;;;;;;;18.42;14.60;;;13.80;70.50;;;;;;5002425;28;20049;-45
2023/04/29 07:05:44;;;;;;;19.00;14.30;;;13.80;70.30;;;;;;5010592;28;20599;-45
2023/04/29 07:08:12;;;;;;;20.58;14.80;;;13.80;70.30;;;;;;5011575;28;20080;-44
2023/04/29 07:10:40;;;;;;;18.80;14.77;;;13.80;70.50;;;;;;5025451;28;20099;-44
2023/04/29 07:13:07;;;;;;;22.45;15.85;;;13.80;70.40;;;;;;5030149;28;20041;-44
2023/04/29 07:15:34;;;;;;;24.20;15.80;;;13.90;70.50;;;;;;5027946;28;20048;-45
2023/04/29 07:18:04;;;;;;;21.65;15.02;;;13.90;70.40;;;;;;5026099;28;20501;-45
2023/04/29 07:20:31;;;;;;;20.73;14.50;;;13.90;70.40;;;;;;5012614;28;20045;-45
2023/04/29 07:22:58;;;;;;;23.02;15.00;;;13.80;70.40;;;;;;5010851;28;20046;-46
2023/04/29 07:25:26;;;;;;;25.45;15.57;;;13.80;70.30;;;;;;5001157;28;20406;-44
2023/04/29 07:27:55;;;;;;;25.25;15.27;;;13.80;70.40;;;;;;5006684;28;20049;-46
2023/04/29 07:30:24;;;;;;;22.40;14.85;;;13.80;70.40;;;;;;5012665;28;20042;-45
2023/04/29 07:32:50;;;;;;;24.17;15.70;;;13.80;70.20;;;;;;5012055;28;20054;-45
2023/04/29 07:35:21;;;;;;;21.80;15.10;;;13.80;70.50;;;;;;5009929;28;20068;-46
2023/04/29 07:37:48;;;;;;;24.88;16.35;;;13.80;70.60;;;;;;5007180;28;20044;-45
2023/04/29 07:40:14;;;;;;;19.40;14.00;;;13.80;70.60;;;;;;5009473;28;20529;-45
2023/04/29 07:42:42;;;;;;;18.15;13.60;;;13.80;70.60;;;;;;5001003;28;20046;-45
2023/04/29 07:45:10;;;;;;;21.98;15.48;;;13.80;70.70;;;;;;4992406;28;20041;-45
2023/04/29 07:47:38;;;;;;;20.45;15.18;;;13.80;70.60;;;;;;5011851;28;20099;-45
2023/04/29 07:50:08;;;;;;;20.42;15.10;;;13.80;70.80;;;;;;5007830;28;20037;-46
2023/04/29 07:52:37;;;;;;;21.85;16.25;;;13.80;70.80;;;;;;5009155;28;20033;-48
2023/04/29 07:55:04;;;;;;;22.10;17.10;;;13.80;70.80;;;;;;5010989;28;20046;-51
2023/04/29 07:57:31;;;;;;;21.27;15.60;;;13.80;70.90;;;;;;5018259;28;20038;-48
2023/04/29 07:59:58;;;;;;;23.88;15.65;;;13.80;70.90;;;;;;5009976;28;20164;-49
2023/04/29 08:02:25;;;;;;;20.52;15.10;;;13.80;71.00;;;;;;5009070;28;20089;-51
2023/04/29 08:04:54;;;;;;;22.55;15.68;;;13.80;71.20;;;;;;5010136;28;20061;-50
2023/04/29 08:07:22;;;;;;;20.95;15.20;;;13.80;71.20;;;;;;4999866;28;20077;-48
2023/04/29 08:09:50;;;;;;;20.30;15.48;;;13.90;71.20;;;;;;4998613;28;20080;-51
2023/04/29 08:12:16;;;;;;;21.17;16.17;;;14.00;71.30;;;;;;5015904;28;20133;-49
2023/04/29 08:14:43;;;;;;;21.83;14.70;;;14.00;71.00;;;;;;5011120;28;20049;-48
2023/04/29 08:17:10;;;;;;;20.92;15.38;;;14.10;71.20;;;;;;5015174;28;20060;-47
2023/04/29 08:19:37;;;;;;;24.75;16.83;;;14.10;71.00;;;;;;5013549;28;20388;-50
2023/04/29 08:22:03;;;;;;;18.02;13.73;;;14.20;70.90;;;;;;5010071;28;20529;-50
2023/04/29 08:24:32;;;;;;;19.88;13.35;;;14.30;70.70;;;;;;5016277;28;20065;-51
2023/04/29 08:26:59;;;;;;;18.52;13.95;;;14.40;70.60;;;;;;5022331;28;20383;-49
2023/04/29 08:29:25;;;;;;;18.60;14.07;;;14.50;70.30;;;;;;5014451;28;20046;-48
2023/04/29 08:31:52;;;;;;;19.05;13.70;;;14.50;70.00;;;;;;5010739;28;20049;-48
2023/04/29 08:34:19;;;;;;;18.23;13.68;;;14.60;70.10;;;;;;5014671;28;20050;-50
2023/04/29 08:36:45;;;;;;;17.02;13.20;;;14.70;70.10;;;;;;5023168;28;20375;-49
2023/04/29 08:39:14;;;;;;;18.05;13.35;;;14.80;70.20;;;;;;5009781;28;20236;-51
2023/04/29 08:41:44;;;;;;;18.23;12.18;;;15.00;70.00;;;;;;5009764;28;20046;-47
2023/04/29 08:44:10;;;;;;;18.17;12.93;;;15.10;69.30;;;;;;5021508;28;20045;-49
2023/04/29 08:46:38;;;;;;;15.02;11.18;;;15.20;68.80;;;;;;5000960;28;20042;-50
2023/04/29 08:49:05;;;;;;;16.77;12.10;;;15.30;69.20;;;;;;5009075;28;20042;-50
2023/04/29 08:51:33;;;;;;;15.35;11.20;;;15.40;68.40;;;;;;5009440;28;20794;-49
2023/04/29 08:54:00;;;;;;;14.02;10.18;;;15.50;67.90;;;;;;5008080;28;20049;-52
2023/04/29 08:56:29;;;;;;;13.50;9.95;;;15.60;67.80;;;;;;5014056;28;20091;-50
2023/04/29 08:58:57;;;;;;;14.77;10.55;;;15.60;67.00;;;;;;5026614;28;20069;-49
2023/04/29 09:01:27;;;;;;;13.32;10.85;;;15.70;66.50;;;;;;5028347;28;20040;-47
2023/04/29 09:04:18;;;;;;;14.60;10.80;;;15.70;65.90;;;;;;5024991;28;20497;-50
2023/04/29 09:06:47;;;;;;;12.18;8.95;;;15.80;65.80;;;;;;5018734;28;20068;-50
2023/04/29 09:09:14;;;;;;;10.75;8.82;;;15.80;65.50;;;;;;5009460;28;20050;-50
2023/04/29 09:11:41;;;;;;;13.40;10.32;;;15.80;65.00;;;;;;5009408;28;20057;-50
2023/04/29 09:14:08;;;;;;;13.70;10.98;;;15.80;65.00;;;;;;5022188;28;20042;-50
2023/04/29 09:16:37;;;;;;;15.35;11.18;;;15.70;64.90;;;;;;5022921;28;20042;-47
2023/04/29 09:19:06;;;;;;;13.63;10.68;;;15.70;65.10;;;;;;5018521;28;20084;-50
2023/04/29 09:21:35;;;;;;;13.77;11.38;;;15.70;65.00;;;;;;5011896;28;20039;-51
2023/04/29 09:24:02;;;;;;;16.42;12.10;;;15.60;64.80;;;;;;5009278;28;20046;-49
2023/04/29 09:26:44;;;;;;;13.63;11.13;;;15.60;65.00;;;;;;5015269;28;20045;-46
2023/04/29 09:29:17;;;;;;;18.60;12.20;;;15.60;64.60;;;;;;5044226;22;20041;-55
2023/04/29 09:31:44;;;;;;;15.63;11.63;;;15.50;64.50;;;;;;5046100;28;20159;-51
2023/04/29 09:34:13;;;;;;;17.30;13.40;;;15.50;64.80;;;;;;5048059;28;20052;-49
2023/04/29 09:36:45;;;;;;;19.63;14.07;;;15.40;64.70;;;;;;5048157;28;20049;-53
2023/04/29 09:39:18;;;;;;;20.60;14.85;;;15.40;64.90;;;;;;5044549;28;20041;-52
2023/04/29 09:41:53;;;;;;;19.55;14.27;;;15.40;64.90;;;;;;5039344;28;20055;-52
2023/04/29 09:44:22;;;;;;;22.02;14.73;;;15.40;64.50;;;;;;5042270;28;20493;-49
2023/04/29 09:46:54;;;;;;;21.15;15.48;;;15.30;64.50;;;;;;5041152;28;20055;-49
2023/04/29 09:49:25;;;;;;;18.30;14.05;;;15.30;64.70;;;;;;5041738;28;20382;-51
2023/04/29 09:51:56;;;;;;;21.58;15.27;;;15.20;65.00;;;;;;5042031;28;20052;-53
2023/04/29 09:54:27;;;;;;;23.58;15.80;;;15.20;65.00;;;;;;5040935;28;20128;-49
2023/04/29 09:56:55;;;;;;;21.08;15.30;;;15.10;65.00;;;;;;5044610;28;20041;-51
2023/04/29 09:59:22;;;;;;;19.75;15.18;;;15.10;65.20;;;;;;5044312;28;20041;-54
2023/04/29 10:01:51;;;;;;;21.85;15.00;;;15.10;65.20;;;;;;5042430;28;20045;-53
2023/04/29 10:04:22;;;;;;;21.42;15.05;;;15.10;65.20;;;;;;5039468;28;20037;-52
2023/04/29 10:06:53;;;;;;;18.92;14.38;;;15.10;66.00;;;;;;5040791;28;20535;-50
2023/04/29 10:09:22;;;;;;;23.60;15.90;;;15.10;65.50;;;;;;5041131;28;20037;-49
2023/04/29 10:11:51;;;;;;;18.13;15.00;;;15.10;65.50;;;;;;5044644;28;20061;-51
2023/04/29 10:14:20;;;;;;;21.15;15.13;;;15.10;65.50;;;;;;5045725;28;20049;-52
2023/04/29 10:17:08;;;;;;;20.60;14.82;;;15.10;65.70;;;;;;5042686;28;20048;-52
2023/04/29 10:19:46;;;;;;;19.85;14.55;;;15.10;65.60;;;;;;5043291;28;20048;-53
2023/04/29 10:22:25;;;;;;;19.75;14.95;;;15.20;65.60;;;;;;5046898;28;20432;-50
2023/04/29 10:24:54;;;;;;;21.95;15.20;;;15.20;65.30;;;;;;5045176;28;20120;-53
2023/04/29 10:27:21;;;;;;;18.55;14.30;;;15.20;65.30;;;;;;5037622;28;20119;-52
2023/04/29 10:29:53;;;;;;;22.30;16.13;;;15.20;65.40;;;;;;5045080;28;20413;-52
2023/04/29 10:32:21;;;;;;;21.50;15.35;;;15.30;65.60;;;;;;5040714;28;20056;-49
2023/04/29 10:34:53;;;;;;;19.90;14.85;;;15.30;65.70;;;;;;5035295;28;20095;-50
2023/04/29 10:37:20;;;;;;;;;;;15.30;65.50;;;;;;5026232;28;20087;-49
2023/04/29 10:39:55;;;;;;;20.75;14.57;;;15.40;65.60;;;;;;5039632;28;19921;-52
2023/04/29 10:42:58;;;;;;;21.35;15.90;;;15.40;65.50;;;;;;5037043;28;20501;-50
2023/04/29 10:45:30;;;;;;;21.17;15.07;;;15.40;65.30;;;;;;5038860;28;20096;-49
2023/04/29 10:48:09;;;;;;;18.45;14.90;;;15.40;65.30;;;;;;5045211;28;20044;-52
2023/04/29 10:50:47;;;;;;;24.05;15.50;;;15.40;65.80;;;;;;5044673;28;20119;-51
2023/04/29 10:53:16;;;;;;;18.55;14.48;;;15.50;65.40;;;;;;5044006;28;20092;-52
2023/04/29 10:55:46;;;;;;;20.38;14.60;;;15.60;65.40;;;;;;5046030;28;20037;-50
2023/04/29 10:58:36;;;;;;;20.08;14.68;;;15.60;65.00;;;;;;5043733;28;21447;-51
2023/04/29 11:01:03;;;;;;;18.15;13.50;;;15.70;64.60;;;;;;5050712;28;20044;-50
2023/04/29 11:03:47;;;;;;;18.73;14.48;;;15.80;64.80;;;;;;5038459;28;20049;-49
2023/04/29 11:06:15;;;;;;;20.27;13.32;;;15.80;64.10;;;;;;5037985;28;20044;-52
2023/04/29 11:08:42;;;;;;;20.95;13.75;;;15.90;64.30;;;;;;5038080;28;20041;-52
2023/04/29 11:11:09;;;;;;;16.73;13.93;;;15.90;64.30;;;;;;5042824;28;20065;-52
2023/04/29 11:13:39;;;;;;;19.63;14.55;;;16.00;64.40;;;;;;5043783;28;20607;-53
2023/04/29 11:16:10;;;;;;;20.58;14.18;;;16.00;64.10;;;;;;5040520;28;20051;-53
2023/04/29 11:19:09;;;;;;;17.38;13.43;;;16.10;63.50;;;;;;5038764;28;20500;-51
2023/04/29 11:21:36;;;;;;;17.48;12.82;;;16.20;63.50;;;;;;5036033;28;20045;-52
2023/04/29 11:24:05;;;;;;;18.05;13.50;;;16.30;63.60;;;;;;5047933;28;20040;-50
2023/04/29 11:26:34;;;;;;;17.52;12.95;;;16.30;63.40;;;;;;5038895;28;20046;-53
2023/04/29 11:29:01;;;;;;;15.30;13.23;;;16.40;63.80;;;;;;5038082;28;20120;-53
2023/04/29 11:31:31;;;;;;;15.02;12.57;;;16.50;63.70;;;;;;5040431;28;20418;-50
2023/04/29 11:33:59;;;;;;;14.52;12.57;;;16.60;63.40;;;;;;5033792;28;20064;-53
2023/04/29 11:36:26;;;;;;;15.68;11.60;;;16.70;63.20;;;;;;5039747;28;20045;-53
2023/04/29 11:38:53;;;;;;;17.63;13.00;;;16.80;63.30;;;;;;5040135;28;20044;-53
2023/04/29 11:41:21;;;;;;;13.75;11.65;;;16.90;62.80;;;;;;5038401;28;20049;-49
2023/04/29 11:43:55;;;;;;;12.60;11.30;;;17.00;61.90;;;;;;5041497;28;20045;-53
2023/04/29 11:46:22;;;;;;;13.90;11.95;;;17.00;61.40;;;;;;5043554;28;20060;-49
2023/04/29 11:48:49;;;;;;;13.93;12.48;;;17.10;61.90;;;;;;5039926;28;20053;-52
2023/04/29 11:51:18;;;;;;;15.77;12.60;;;17.20;61.90;;;;;;5040510;28;20099;-52
2023/04/29 11:53:44;;;;;;;15.07;11.38;;;17.20;61.20;;;;;;5031827;28;20481;-51
2023/04/29 11:56:11;;;;;;;14.98;11.02;;;17.30;61.10;;;;;;5040930;28;20505;-54
2023/04/29 11:58:42;;;;;;;14.75;11.80;;;17.40;61.20;;;;;;5041209;28;20041;-51
2023/04/29 12:01:08;;;;;;;14.85;11.23;;;17.50;60.80;;;;;;5037753;28;20037;-53
2023/04/29 12:03:35;;;;;;;13.73;12.15;;;17.50;60.60;;;;;;5041744;28;20081;-52
2023/04/29 12:06:05;;;;;;;13.45;11.50;;;17.60;61.30;;;;;;5033502;28;20052;-53
2023/04/29 12:08:34;;;;;;;14.23;12.68;;;17.80;60.70;;;;;;5049055;28;20041;-53
2023/04/29 12:11:00;;;;;;;15.10;11.90;;;17.80;60.20;;;;;;5043685;28;20053;-50
2023/04/29 12:13:29;;;;;;;15.00;12.10;;;18.10;60.20;;;;;;5035652;28;20057;-50
2023/04/29 12:15:57;;;;;;;12.40;11.10;;;18.10;59.20;;;;;;5039036;28;20036;-52
2023/04/29 12:18:26;;;;;;;13.90;10.68;;;18.20;59.10;;;;;;5034478;28;20050;-51
2023/04/29 12:20:54;;;;;;;17.85;12.05;;;18.30;58.60;;;;;;5040480;28;20147;-51
2023/04/29 12:23:26;;;;;;;13.13;11.63;;;18.40;58.30;;;;;;5035820;28;20045;-51
2023/04/29 12:25:54;;;;;;;14.68;11.18;;;18.50;58.30;;;;;;5041329;28;20041;-53
2023/04/29 12:28:21;;;;;;;13.57;10.93;;;18.70;58.70;;;;;;5038480;28;20051;-52
2023/04/29 12:30:55;;;;;;;12.82;10.60;;;18.80;58.40;;;;;;5040252;28;20049;-53
2023/04/29 12:33:28;;;;;;;12.35;10.50;;;19.00;58.50;;;;;;5044154;28;20405;-52
2023/04/29 12:35:56;;;;;;;11.17;9.97;;;19.10;58.00;;;;;;5045569;28;20053;-53
2023/04/29 12:38:29;;;;;;;12.68;10.80;;;19.30;57.80;;;;;;5037124;28;20064;-53
2023/04/29 12:40:57;;;;;;;10.77;9.70;;;19.50;56.60;;;;;;5049722;28;20533;-53
2023/04/29 12:43:32;;;;;;;9.90;8.90;;;19.70;56.70;;;;;;5040053;28;20453;-53
2023/04/29 12:46:06;;;;;;;9.80;8.80;;;19.80;56.80;;;;;;5038769;28;20048;-50